sensor_id;sensor_type;location;lat;lon;timestamp;P1;durP1;ratioP1;P2;durP2;ratioP2
22441;SDS011;11388;54.456;9.752;2022-10-16T00:01:08;6.15;;;4.15;;
22441;SDS011;11388;54.456;9.752;2022-10-16T00:03:39;9.95;;;4.47;;
22441;SDS011;11388;54.456;9.752;2022-10-16T00:06:06;7.35;;;4.30;;
22441;SDS011;11388;54.456;9.752;2022-10-16T00:08:32;6.38;;;3.95;;
22441;SDS011;11388;54.456;9.752;2022-10-16T00:11:10;8.27;;;4.07;;
22441;SDS011;11388;54.456;9.752;2022-10-16T00:13:43;9.50;;;4.38;;
22441;SDS011;11388;54.456;9.752;2022-10-16T00:16:10;6.63;;;3.97;;
22441;SDS011;11388;54.456;9.752;2022-10-16T00:18:37;8.52;;;3.75;;
22441;SDS011;11388;54.456;9.752;2022-10-16T00:21:04;7.32;;;3.88;;
22441;SDS011;11388;54.456;9.752;2022-10-16T00:23:33;8.10;;;3.83;;
22441;SDS011;11388;54.456;9.752;2022-10-16T00:26:00;5.88;;;4.00;;
22441;SDS011;11388;54.456;9.752;2022-10-16T00:28:27;6.25;;;4.00;;
22441;SDS011;11388;54.456;9.752;2022-10-16T00:30:54;7.93;;;3.80;;
22441;SDS011;11388;54.456;9.752;2022-10-16T00:33:19;7.35;;;3.95;;
22441;SDS011;11388;54.456;9.752;2022-10-16T00:35:45;8.52;;;3.80;;
22441;SDS011;11388;54.456;9.752;2022-10-16T00:38:11;7.38;;;3.90;;
22441;SDS011;11388;54.456;9.752;2022-10-16T00:40:37;7.85;;;3.65;;
22441;SDS011;11388;54.456;9.752;2022-10-16T00:43:04;9.20;;;3.92;;
22441;SDS011;11388;54.456;9.752;2022-10-16T00:45:37;9.30;;;3.70;;
22441;SDS011;11388;54.456;9.752;2022-10-16T00:48:03;6.55;;;3.47;;
22441;SDS011;11388;54.456;9.752;2022-10-16T00:50:33;8.75;;;3.53;;
22441;SDS011;11388;54.456;9.752;2022-10-16T00:53:00;8.55;;;3.83;;
22441;SDS011;11388;54.456;9.752;2022-10-16T00:55:28;8.52;;;3.67;;
22441;SDS011;11388;54.456;9.752;2022-10-16T00:57:55;8.38;;;3.90;;
22441;SDS011;11388;54.456;9.752;2022-10-16T01:00:23;7.32;;;3.53;;
22441;SDS011;11388;54.456;9.752;2022-10-16T01:02:58;6.35;;;3.22;;
22441;SDS011;11388;54.456;9.752;2022-10-16T01:05:35;6.90;;;3.30;;
22441;SDS011;11388;54.456;9.752;2022-10-16T01:08:13;5.90;;;2.97;;
22441;SDS011;11388;54.456;9.752;2022-10-16T01:10:48;5.50;;;2.78;;
22441;SDS011;11388;54.456;9.752;2022-10-16T01:13:32;6.72;;;3.03;;
22441;SDS011;11388;54.456;9.752;2022-10-16T01:16:05;7.95;;;3.30;;
22441;SDS011;11388;54.456;9.752;2022-10-16T01:18:45;8.63;;;3.10;;
22441;SDS011;11388;54.456;9.752;2022-10-16T01:29:40;6.00;;;3.22;;
22441;SDS011;11388;54.456;9.752;2022-10-16T01:32:19;6.45;;;3.15;;
22441;SDS011;11388;54.456;9.752;2022-10-16T01:35:32;7.30;;;3.60;;
22441;SDS011;11388;54.456;9.752;2022-10-16T01:40:27;7.90;;;3.47;;
22441;SDS011;11388;54.456;9.752;2022-10-16T01:42:56;5.85;;;2.80;;
22441;SDS011;11388;54.456;9.752;2022-10-16T01:45:28;7.32;;;3.30;;
22441;SDS011;11388;54.456;9.752;2022-10-16T01:47:56;7.38;;;3.20;;
22441;SDS011;11388;54.456;9.752;2022-10-16T01:50:23;6.70;;;3.17;;
22441;SDS011;11388;54.456;9.752;2022-10-16T01:52:51;8.32;;;3.58;;
22441;SDS011;11388;54.456;9.752;2022-10-16T01:55:22;6.15;;;2.95;;
22441;SDS011;11388;54.456;9.752;2022-10-16T01:57:54;9.82;;;3.05;;
22441;SDS011;11388;54.456;9.752;2022-10-16T02:00:21;6.60;;;3.22;;
22441;SDS011;11388;54.456;9.752;2022-10-16T02:02:48;5.70;;;3.10;;
22441;SDS011;11388;54.456;9.752;2022-10-16T02:05:23;6.28;;;3.20;;
22441;SDS011;11388;54.456;9.752;2022-10-16T02:07:53;5.40;;;3.50;;
22441;SDS011;11388;54.456;9.752;2022-10-16T02:10:19;7.95;;;3.08;;
22441;SDS011;11388;54.456;9.752;2022-10-16T02:12:47;7.45;;;3.35;;
22441;SDS011;11388;54.456;9.752;2022-10-16T02:15:16;6.70;;;3.00;;
22441;SDS011;11388;54.456;9.752;2022-10-16T02:17:41;6.97;;;3.22;;
22441;SDS011;11388;54.456;9.752;2022-10-16T02:20:07;7.32;;;3.05;;
22441;SDS011;11388;54.456;9.752;2022-10-16T02:22:34;6.40;;;2.90;;
22441;SDS011;11388;54.456;9.752;2022-10-16T02:25:17;5.28;;;3.00;;
22441;SDS011;11388;54.456;9.752;2022-10-16T02:30:43;7.55;;;3.10;;
22441;SDS011;11388;54.456;9.752;2022-10-16T02:33:14;6.13;;;3.20;;
22441;SDS011;11388;54.456;9.752;2022-10-16T02:35:42;7.07;;;3.08;;
22441;SDS011;11388;54.456;9.752;2022-10-16T02:38:10;7.82;;;3.13;;
22441;SDS011;11388;54.456;9.752;2022-10-16T02:40:37;6.38;;;3.05;;
22441;SDS011;11388;54.456;9.752;2022-10-16T02:43:04;7.13;;;3.20;;
22441;SDS011;11388;54.456;9.752;2022-10-16T02:45:30;5.93;;;2.90;;
22441;SDS011;11388;54.456;9.752;2022-10-16T02:47:56;6.38;;;3.40;;
22441;SDS011;11388;54.456;9.752;2022-10-16T02:50:22;5.93;;;2.88;;
22441;SDS011;11388;54.456;9.752;2022-10-16T02:52:48;5.47;;;2.70;;
22441;SDS011;11388;54.456;9.752;2022-10-16T02:55:14;6.18;;;2.90;;
22441;SDS011;11388;54.456;9.752;2022-10-16T02:57:40;7.47;;;3.15;;
22441;SDS011;11388;54.456;9.752;2022-10-16T03:00:06;5.25;;;2.75;;
22441;SDS011;11388;54.456;9.752;2022-10-16T03:02:35;5.03;;;3.00;;
22441;SDS011;11388;54.456;9.752;2022-10-16T03:05:01;8.95;;;3.17;;
22441;SDS011;11388;54.456;9.752;2022-10-16T03:07:27;5.28;;;3.10;;
22441;SDS011;11388;54.456;9.752;2022-10-16T03:09:52;5.47;;;2.80;;
22441;SDS011;11388;54.456;9.752;2022-10-16T03:12:19;7.32;;;3.00;;
22441;SDS011;11388;54.456;9.752;2022-10-16T03:14:45;7.32;;;2.70;;
22441;SDS011;11388;54.456;9.752;2022-10-16T03:17:11;5.78;;;2.70;;
22441;SDS011;11388;54.456;9.752;2022-10-16T03:19:37;7.68;;;2.90;;
22441;SDS011;11388;54.456;9.752;2022-10-16T03:25:25;7.97;;;3.05;;
22441;SDS011;11388;54.456;9.752;2022-10-16T03:27:51;4.63;;;2.42;;
22441;SDS011;11388;54.456;9.752;2022-10-16T03:30:17;7.20;;;3.05;;
22441;SDS011;11388;54.456;9.752;2022-10-16T03:32:46;7.22;;;2.40;;
22441;SDS011;11388;54.456;9.752;2022-10-16T03:35:11;6.68;;;2.78;;
22441;SDS011;11388;54.456;9.752;2022-10-16T03:37:37;5.97;;;2.60;;
22441;SDS011;11388;54.456;9.752;2022-10-16T03:40:03;6.05;;;2.50;;
22441;SDS011;11388;54.456;9.752;2022-10-16T03:42:30;6.07;;;2.65;;
22441;SDS011;11388;54.456;9.752;2022-10-16T03:44:56;7.40;;;2.83;;
22441;SDS011;11388;54.456;9.752;2022-10-16T03:47:21;5.38;;;2.70;;
22441;SDS011;11388;54.456;9.752;2022-10-16T03:49:48;4.80;;;2.60;;
22441;SDS011;11388;54.456;9.752;2022-10-16T03:52:14;5.85;;;2.50;;
22441;SDS011;11388;54.456;9.752;2022-10-16T03:54:40;7.45;;;2.80;;
22441;SDS011;11388;54.456;9.752;2022-10-16T03:57:06;5.00;;;2.50;;
22441;SDS011;11388;54.456;9.752;2022-10-16T03:59:32;4.25;;;2.50;;
22441;SDS011;11388;54.456;9.752;2022-10-16T04:04:34;4.93;;;2.30;;
22441;SDS011;11388;54.456;9.752;2022-10-16T04:07:00;6.78;;;2.67;;
22441;SDS011;11388;54.456;9.752;2022-10-16T04:09:26;4.82;;;2.28;;
22441;SDS011;11388;54.456;9.752;2022-10-16T04:11:52;6.72;;;2.30;;
22441;SDS011;11388;54.456;9.752;2022-10-16T04:14:18;5.13;;;2.33;;
22441;SDS011;11388;54.456;9.752;2022-10-16T04:16:44;5.75;;;2.08;;
22441;SDS011;11388;54.456;9.752;2022-10-16T04:19:10;7.13;;;2.30;;
22441;SDS011;11388;54.456;9.752;2022-10-16T04:44:34;6.18;;;2.20;;
22441;SDS011;11388;54.456;9.752;2022-10-16T06:07:33;5.03;;;1.40;;
22441;SDS011;11388;54.456;9.752;2022-10-16T06:24:40;7.63;;;1.20;;
22441;SDS011;11388;54.456;9.752;2022-10-16T06:27:11;4.43;;;1.13;;
22441;SDS011;11388;54.456;9.752;2022-10-16T07:44:47;3.03;;;1.10;;
22441;SDS011;11388;54.456;9.752;2022-10-16T08:09:54;2.42;;;1.00;;
22441;SDS011;11388;54.456;9.752;2022-10-16T08:12:36;3.42;;;1.00;;
22441;SDS011;11388;54.456;9.752;2022-10-16T08:15:47;3.35;;;1.10;;
22441;SDS011;11388;54.456;9.752;2022-10-16T08:18:24;4.47;;;1.42;;
22441;SDS011;11388;54.456;9.752;2022-10-16T08:24:48;3.63;;;1.27;;
22441;SDS011;11388;54.456;9.752;2022-10-16T08:50:17;4.18;;;1.60;;
22441;SDS011;11388;54.456;9.752;2022-10-16T09:22:21;3.83;;;1.40;;
22441;SDS011;11388;54.456;9.752;2022-10-16T10:21:02;5.88;;;1.48;;
22441;SDS011;11388;54.456;9.752;2022-10-16T10:23:38;5.28;;;1.60;;
22441;SDS011;11388;54.456;9.752;2022-10-16T10:26:06;7.75;;;1.75;;
22441;SDS011;11388;54.456;9.752;2022-10-16T10:40:34;5.18;;;1.40;;
22441;SDS011;11388;54.456;9.752;2022-10-16T10:43:14;12.77;;;1.73;;
22441;SDS011;11388;54.456;9.752;2022-10-16T10:45:46;5.75;;;1.60;;
22441;SDS011;11388;54.456;9.752;2022-10-16T10:51:00;6.90;;;1.48;;
22441;SDS011;11388;54.456;9.752;2022-10-16T10:53:40;7.13;;;1.70;;
22441;SDS011;11388;54.456;9.752;2022-10-16T11:01:28;4.40;;;1.15;;
22441;SDS011;11388;54.456;9.752;2022-10-16T11:04:14;8.50;;;1.42;;
22441;SDS011;11388;54.456;9.752;2022-10-16T11:06:57;4.45;;;1.30;;
22441;SDS011;11388;54.456;9.752;2022-10-16T11:09:48;5.30;;;1.30;;
22441;SDS011;11388;54.456;9.752;2022-10-16T11:12:17;5.22;;;1.00;;
22441;SDS011;11388;54.456;9.752;2022-10-16T11:14:48;4.70;;;1.20;;
22441;SDS011;11388;54.456;9.752;2022-10-16T11:17:35;9.07;;;1.60;;
22441;SDS011;11388;54.456;9.752;2022-10-16T11:23:27;8.55;;;1.70;;
22441;SDS011;11388;54.456;9.752;2022-10-16T11:25:50;4.88;;;1.20;;
22441;SDS011;11388;54.456;9.752;2022-10-16T11:28:19;5.72;;;1.30;;
22441;SDS011;11388;54.456;9.752;2022-10-16T11:30:57;6.20;;;1.35;;
22441;SDS011;11388;54.456;9.752;2022-10-16T11:33:49;5.63;;;1.30;;
22441;SDS011;11388;54.456;9.752;2022-10-16T11:36:28;6.25;;;1.42;;
22441;SDS011;11388;54.456;9.752;2022-10-16T11:39:22;6.57;;;1.63;;
22441;SDS011;11388;54.456;9.752;2022-10-16T11:51:36;8.10;;;1.75;;
22441;SDS011;11388;54.456;9.752;2022-10-16T11:54:18;8.73;;;1.70;;
22441;SDS011;11388;54.456;9.752;2022-10-16T12:13:28;9.30;;;2.13;;
22441;SDS011;11388;54.456;9.752;2022-10-16T12:19:32;8.70;;;1.65;;
22441;SDS011;11388;54.456;9.752;2022-10-16T12:25:36;7.20;;;1.60;;
22441;SDS011;11388;54.456;9.752;2022-10-16T12:35:27;7.78;;;1.75;;
22441;SDS011;11388;54.456;9.752;2022-10-16T12:38:20;7.95;;;1.60;;
22441;SDS011;11388;54.456;9.752;2022-10-16T12:41:11;9.48;;;1.90;;
22441;SDS011;11388;54.456;9.752;2022-10-16T12:44:03;7.68;;;1.50;;
22441;SDS011;11388;54.456;9.752;2022-10-16T12:47:18;10.73;;;1.80;;
22441;SDS011;11388;54.456;9.752;2022-10-16T13:03:55;8.05;;;1.60;;
22441;SDS011;11388;54.456;9.752;2022-10-16T13:07:15;9.90;;;1.88;;
22441;SDS011;11388;54.456;9.752;2022-10-16T13:33:57;9.13;;;1.85;;
22441;SDS011;11388;54.456;9.752;2022-10-16T13:36:26;11.65;;;2.30;;
22441;SDS011;11388;54.456;9.752;2022-10-16T14:19:49;12.23;;;1.85;;
22441;SDS011;11388;54.456;9.752;2022-10-16T14:25:20;10.80;;;2.08;;
22441;SDS011;11388;54.456;9.752;2022-10-16T14:27:59;9.30;;;2.15;;
22441;SDS011;11388;54.456;9.752;2022-10-16T14:31:00;10.25;;;2.35;;
22441;SDS011;11388;54.456;9.752;2022-10-16T14:36:46;11.93;;;2.33;;
22441;SDS011;11388;54.456;9.752;2022-10-16T14:39:21;9.57;;;1.98;;
22441;SDS011;11388;54.456;9.752;2022-10-16T14:55:09;11.80;;;2.47;;
22441;SDS011;11388;54.456;9.752;2022-10-16T14:58:17;15.18;;;2.65;;
22441;SDS011;11388;54.456;9.752;2022-10-16T15:08:05;12.10;;;2.20;;
22441;SDS011;11388;54.456;9.752;2022-10-16T15:14:26;12.77;;;2.42;;
22441;SDS011;11388;54.456;9.752;2022-10-16T15:17:33;17.75;;;2.88;;
22441;SDS011;11388;54.456;9.752;2022-10-16T15:20:34;12.98;;;2.83;;
22441;SDS011;11388;54.456;9.752;2022-10-16T15:23:02;12.75;;;2.70;;
22441;SDS011;11388;54.456;9.752;2022-10-16T15:32:14;13.95;;;2.60;;
22441;SDS011;11388;54.456;9.752;2022-10-16T15:34:58;13.38;;;2.50;;
22441;SDS011;11388;54.456;9.752;2022-10-16T15:37:24;15.40;;;2.92;;
22441;SDS011;11388;54.456;9.752;2022-10-16T15:49:53;16.58;;;2.97;;
22441;SDS011;11388;54.456;9.752;2022-10-16T15:52:24;13.15;;;2.60;;
22441;SDS011;11388;54.456;9.752;2022-10-16T16:08:26;15.65;;;2.53;;
22441;SDS011;11388;54.456;9.752;2022-10-16T16:11:09;11.02;;;2.30;;
22441;SDS011;11388;54.456;9.752;2022-10-16T16:20:57;13.93;;;2.15;;
22441;SDS011;11388;54.456;9.752;2022-10-16T16:23:43;16.77;;;2.63;;
22441;SDS011;11388;54.456;9.752;2022-10-16T16:26:12;14.38;;;2.50;;
22441;SDS011;11388;54.456;9.752;2022-10-16T16:28:53;12.77;;;2.55;;
22441;SDS011;11388;54.456;9.752;2022-10-16T16:31:23;13.98;;;2.47;;
22441;SDS011;11388;54.456;9.752;2022-10-16T16:34:08;15.88;;;2.53;;
22441;SDS011;11388;54.456;9.752;2022-10-16T16:36:44;11.85;;;2.20;;
22441;SDS011;11388;54.456;9.752;2022-10-16T16:42:48;11.50;;;2.33;;
22441;SDS011;11388;54.456;9.752;2022-10-16T17:00:22;13.55;;;2.75;;
22441;SDS011;11388;54.456;9.752;2022-10-16T17:02:59;13.73;;;2.42;;
22441;SDS011;11388;54.456;9.752;2022-10-16T17:08:40;16.02;;;2.75;;
22441;SDS011;11388;54.456;9.752;2022-10-16T17:11:41;13.88;;;2.30;;
22441;SDS011;11388;54.456;9.752;2022-10-16T17:14:09;11.82;;;2.25;;
22441;SDS011;11388;54.456;9.752;2022-10-16T17:19:52;14.35;;;2.67;;
22441;SDS011;11388;54.456;9.752;2022-10-16T17:22:28;12.70;;;2.50;;
22441;SDS011;11388;54.456;9.752;2022-10-16T17:25:15;10.77;;;2.40;;
22441;SDS011;11388;54.456;9.752;2022-10-16T17:27:58;13.88;;;2.78;;
22441;SDS011;11388;54.456;9.752;2022-10-16T17:30:38;14.02;;;2.45;;
22441;SDS011;11388;54.456;9.752;2022-10-16T17:33:20;11.45;;;2.45;;
22441;SDS011;11388;54.456;9.752;2022-10-16T17:36:02;11.57;;;2.15;;
22441;SDS011;11388;54.456;9.752;2022-10-16T17:38:38;16.48;;;2.60;;
22441;SDS011;11388;54.456;9.752;2022-10-16T17:41:19;13.00;;;2.60;;
22441;SDS011;11388;54.456;9.752;2022-10-16T17:44:37;9.45;;;2.28;;
22441;SDS011;11388;54.456;9.752;2022-10-16T17:47:12;15.05;;;2.80;;
22441;SDS011;11388;54.456;9.752;2022-10-16T17:52:37;17.27;;;2.85;;
22441;SDS011;11388;54.456;9.752;2022-10-16T17:55:41;11.07;;;2.20;;
22441;SDS011;11388;54.456;9.752;2022-10-16T17:58:08;14.98;;;3.08;;
22441;SDS011;11388;54.456;9.752;2022-10-16T18:00:55;14.07;;;2.75;;
22441;SDS011;11388;54.456;9.752;2022-10-16T18:03:59;12.40;;;2.90;;
22441;SDS011;11388;54.456;9.752;2022-10-16T18:06:37;10.20;;;2.75;;
22441;SDS011;11388;54.456;9.752;2022-10-16T18:09:20;14.25;;;4.18;;
22441;SDS011;11388;54.456;9.752;2022-10-16T18:12:09;15.98;;;3.60;;
22441;SDS011;11388;54.456;9.752;2022-10-16T18:14:35;16.20;;;4.65;;
22441;SDS011;11388;54.456;9.752;2022-10-16T18:17:04;15.65;;;4.30;;
22441;SDS011;11388;54.456;9.752;2022-10-16T18:19:52;15.80;;;4.45;;
22441;SDS011;11388;54.456;9.752;2022-10-16T20:41:14;18.08;;;3.50;;
22441;SDS011;11388;54.456;9.752;2022-10-16T20:43:42;11.75;;;3.15;;
22441;SDS011;11388;54.456;9.752;2022-10-16T20:46:09;11.32;;;3.15;;
22441;SDS011;11388;54.456;9.752;2022-10-16T20:48:40;18.23;;;3.50;;
22441;SDS011;11388;54.456;9.752;2022-10-16T20:51:15;14.18;;;3.47;;
22441;SDS011;11388;54.456;9.752;2022-10-16T20:54:00;13.02;;;2.55;;
22441;SDS011;11388;54.456;9.752;2022-10-16T20:56:28;13.13;;;3.00;;
22441;SDS011;11388;54.456;9.752;2022-10-16T20:58:55;11.30;;;2.65;;
22441;SDS011;11388;54.456;9.752;2022-10-16T21:01:23;11.30;;;2.97;;
22441;SDS011;11388;54.456;9.752;2022-10-16T21:04:00;11.68;;;2.92;;
22441;SDS011;11388;54.456;9.752;2022-10-16T21:06:27;13.25;;;3.13;;
22441;SDS011;11388;54.456;9.752;2022-10-16T21:08:54;15.80;;;2.90;;
22441;SDS011;11388;54.456;9.752;2022-10-16T21:11:36;12.82;;;2.80;;
22441;SDS011;11388;54.456;9.752;2022-10-16T21:14:03;12.20;;;2.80;;
22441;SDS011;11388;54.456;9.752;2022-10-16T21:16:30;12.57;;;2.90;;
22441;SDS011;11388;54.456;9.752;2022-10-16T21:18:56;13.63;;;2.78;;
22441;SDS011;11388;54.456;9.752;2022-10-16T21:24:02;12.85;;;3.15;;
22441;SDS011;11388;54.456;9.752;2022-10-16T21:26:28;14.43;;;3.05;;
22441;SDS011;11388;54.456;9.752;2022-10-16T21:28:56;13.25;;;2.90;;
22441;SDS011;11388;54.456;9.752;2022-10-16T21:31:23;17.95;;;3.25;;
22441;SDS011;11388;54.456;9.752;2022-10-16T21:33:49;11.68;;;2.60;;
22441;SDS011;11388;54.456;9.752;2022-10-16T21:36:19;14.60;;;3.28;;
22441;SDS011;11388;54.456;9.752;2022-10-16T21:38:47;14.95;;;2.83;;
22441;SDS011;11388;54.456;9.752;2022-10-16T21:41:16;13.50;;;2.90;;
22441;SDS011;11388;54.456;9.752;2022-10-16T21:43:46;11.18;;;2.60;;
22441;SDS011;11388;54.456;9.752;2022-10-16T21:46:12;11.00;;;2.65;;
22441;SDS011;11388;54.456;9.752;2022-10-16T21:48:39;10.32;;;2.70;;
22441;SDS011;11388;54.456;9.752;2022-10-16T21:51:06;14.60;;;3.25;;
22441;SDS011;11388;54.456;9.752;2022-10-16T21:53:33;11.10;;;2.40;;
22441;SDS011;11388;54.456;9.752;2022-10-16T21:55:59;10.63;;;2.72;;
22441;SDS011;11388;54.456;9.752;2022-10-16T21:58:25;11.48;;;2.60;;
22441;SDS011;11388;54.456;9.752;2022-10-16T22:00:50;14.38;;;3.05;;
22441;SDS011;11388;54.456;9.752;2022-10-16T22:03:16;12.43;;;3.30;;
22441;SDS011;11388;54.456;9.752;2022-10-16T22:05:42;10.65;;;2.70;;
22441;SDS011;11388;54.456;9.752;2022-10-16T22:08:07;13.73;;;3.00;;
22441;SDS011;11388;54.456;9.752;2022-10-16T22:10:33;12.68;;;2.72;;
22441;SDS011;11388;54.456;9.752;2022-10-16T22:12:59;10.88;;;2.78;;
22441;SDS011;11388;54.456;9.752;2022-10-16T22:15:25;14.48;;;3.13;;
22441;SDS011;11388;54.456;9.752;2022-10-16T22:17:50;15.07;;;2.78;;
22441;SDS011;11388;54.456;9.752;2022-10-16T22:20:16;11.60;;;2.70;;
22441;SDS011;11388;54.456;9.752;2022-10-16T22:22:41;10.43;;;2.63;;
22441;SDS011;11388;54.456;9.752;2022-10-16T22:25:07;17.58;;;2.95;;
22441;SDS011;11388;54.456;9.752;2022-10-16T22:27:33;10.90;;;2.58;;
22441;SDS011;11388;54.456;9.752;2022-10-16T22:29:59;16.30;;;2.95;;
22441;SDS011;11388;54.456;9.752;2022-10-16T22:32:24;17.05;;;3.22;;
22441;SDS011;11388;54.456;9.752;2022-10-16T22:34:50;12.32;;;2.85;;
22441;SDS011;11388;54.456;9.752;2022-10-16T22:37:16;10.90;;;2.60;;
22441;SDS011;11388;54.456;9.752;2022-10-16T22:39:41;11.02;;;2.45;;
22441;SDS011;11388;54.456;9.752;2022-10-16T22:42:07;13.90;;;2.50;;
22441;SDS011;11388;54.456;9.752;2022-10-16T22:44:33;11.63;;;2.40;;
22441;SDS011;11388;54.456;9.752;2022-10-16T22:46:58;9.15;;;2.08;;
22441;SDS011;11388;54.456;9.752;2022-10-16T22:49:24;10.15;;;2.22;;
22441;SDS011;11388;54.456;9.752;2022-10-16T22:51:50;10.23;;;2.30;;
22441;SDS011;11388;54.456;9.752;2022-10-16T22:54:15;9.57;;;2.42;;
22441;SDS011;11388;54.456;9.752;2022-10-16T22:56:41;10.93;;;2.30;;
22441;SDS011;11388;54.456;9.752;2022-10-16T22:59:07;7.10;;;2.00;;
22441;SDS011;11388;54.456;9.752;2022-10-16T23:01:37;11.95;;;2.60;;
22441;SDS011;11388;54.456;9.752;2022-10-16T23:04:04;10.75;;;2.30;;
22441;SDS011;11388;54.456;9.752;2022-10-16T23:06:31;13.05;;;2.70;;
22441;SDS011;11388;54.456;9.752;2022-10-16T23:08:58;10.75;;;2.83;;
22441;SDS011;11388;54.456;9.752;2022-10-16T23:11:26;9.45;;;2.47;;
22441;SDS011;11388;54.456;9.752;2022-10-16T23:13:53;10.48;;;2.20;;
22441;SDS011;11388;54.456;9.752;2022-10-16T23:16:20;17.98;;;2.88;;
22441;SDS011;11388;54.456;9.752;2022-10-16T23:18:47;14.77;;;3.20;;
22441;SDS011;11388;54.456;9.752;2022-10-16T23:21:15;12.43;;;2.50;;
22441;SDS011;11388;54.456;9.752;2022-10-16T23:23:46;11.90;;;2.85;;
22441;SDS011;11388;54.456;9.752;2022-10-16T23:26:16;10.88;;;2.55;;
22441;SDS011;11388;54.456;9.752;2022-10-16T23:28:43;9.18;;;2.38;;
22441;SDS011;11388;54.456;9.752;2022-10-16T23:31:10;15.00;;;2.80;;
22441;SDS011;11388;54.456;9.752;2022-10-16T23:33:37;13.23;;;2.90;;
22441;SDS011;11388;54.456;9.752;2022-10-16T23:36:08;11.68;;;2.67;;
22441;SDS011;11388;54.456;9.752;2022-10-16T23:38:35;11.00;;;2.55;;
22441;SDS011;11388;54.456;9.752;2022-10-16T23:41:01;13.70;;;2.80;;
22441;SDS011;11388;54.456;9.752;2022-10-16T23:43:27;8.82;;;1.85;;
22441;SDS011;11388;54.456;9.752;2022-10-16T23:45:53;9.32;;;2.08;;
22441;SDS011;11388;54.456;9.752;2022-10-16T23:48:19;14.80;;;2.47;;
22441;SDS011;11388;54.456;9.752;2022-10-16T23:50:44;10.30;;;2.22;;
22441;SDS011;11388;54.456;9.752;2022-10-16T23:53:10;11.43;;;2.28;;
22441;SDS011;11388;54.456;9.752;2022-10-16T23:55:36;8.07;;;2.25;;
22441;SDS011;11388;54.456;9.752;2022-10-16T23:58:01;10.63;;;2.13;;
